Terminal Aerodrome Forecast
Issued by NWS Twin Cities, MN

Home | Current Version | Previous Version | Text Only | Print | Product List | Glossary On
Versions: 1 2 3 4 5 6 7 8 9 10 11 12 13 14 15 16 17
000
FTUS43 KMPX 221100
TAFEAU
TAF
KEAU 221139Z 2212/2312 20007KT 4SM BR OVC006
     FM221800 18010KT 4SM BR OVC008
     FM230000 18008KT 2SM -DZ BR OVC003
     FM230600 17008KT 1SM -DZ BR VV002
      TEMPO 2308/2312 1/4SM FG VV001=

USA.gov is the U.S. government's official web portal to all federal, state and local government web resources and services.